sensor_id;sensor_type;location;lat;lon;timestamp;pressure;altitude;pressure_sealevel;temperature;humidity
46714;BME280;32445;51.376;10.874;2022-11-13T00:01:07;100761.81;;;5.82;52.05
46714;BME280;32445;51.376;10.874;2022-11-13T00:04:07;100760.03;;;5.79;51.77
46714;BME280;32445;51.376;10.874;2022-11-13T00:07:09;100759.16;;;5.79;52.13
46714;BME280;32445;51.376;10.874;2022-11-13T00:10:10;100756.53;;;5.76;51.37
46714;BME280;32445;51.376;10.874;2022-11-13T00:13:10;100747.94;;;5.72;51.57
46714;BME280;32445;51.376;10.874;2022-11-13T00:16:13;100744.41;;;5.67;51.44
46714;BME280;32445;51.376;10.874;2022-11-13T00:19:14;100758.09;;;5.64;51.86
46714;BME280;32445;51.376;10.874;2022-11-13T00:22:14;100752.06;;;5.61;51.56
46714;BME280;32445;51.376;10.874;2022-11-13T00:25:15;100754.59;;;5.58;52.01
46714;BME280;32445;51.376;10.874;2022-11-13T00:28:15;100747.66;;;5.53;51.82
46714;BME280;32445;51.376;10.874;2022-11-13T00:31:15;100752.78;;;5.50;51.59
46714;BME280;32445;51.376;10.874;2022-11-13T00:34:16;100753.59;;;5.48;51.57
46714;BME280;32445;51.376;10.874;2022-11-13T00:37:16;100752.66;;;5.44;51.83
46714;BME280;32445;51.376;10.874;2022-11-13T00:40:16;100745.72;;;5.40;52.06
46714;BME280;32445;51.376;10.874;2022-11-13T00:43:17;100733.69;;;5.36;51.41
46714;BME280;32445;51.376;10.874;2022-11-13T00:46:17;100739.66;;;5.33;51.34
46714;BME280;32445;51.376;10.874;2022-11-13T00:49:18;100726.75;;;5.32;51.77
46714;BME280;32445;51.376;10.874;2022-11-13T00:52:18;100731.84;;;5.27;51.92
46714;BME280;32445;51.376;10.874;2022-11-13T00:55:18;100735.22;;;5.25;51.80
46714;BME280;32445;51.376;10.874;2022-11-13T00:58:19;100725.75;;;5.22;51.67
46714;BME280;32445;51.376;10.874;2022-11-13T01:01:20;100729.09;;;5.18;51.41
46714;BME280;32445;51.376;10.874;2022-11-13T01:04:20;100729.94;;;5.17;51.83
46714;BME280;32445;51.376;10.874;2022-11-13T01:07:20;100729.88;;;5.12;51.77
46714;BME280;32445;51.376;10.874;2022-11-13T01:10:21;100734.13;;;5.09;52.02
46714;BME280;32445;51.376;10.874;2022-11-13T01:13:22;100727.22;;;5.06;51.64
46714;BME280;32445;51.376;10.874;2022-11-13T01:16:24;100734.91;;;5.03;51.45
46714;BME280;32445;51.376;10.874;2022-11-13T01:19:25;100726.25;;;5.01;51.55
46714;BME280;32445;51.376;10.874;2022-11-13T01:22:25;100721.06;;;4.98;51.86
46714;BME280;32445;51.376;10.874;2022-11-13T01:25:27;100715.06;;;4.96;51.40
46714;BME280;32445;51.376;10.874;2022-11-13T01:28:27;100718.44;;;4.93;51.30
46714;BME280;32445;51.376;10.874;2022-11-13T01:31:29;100719.25;;;4.91;51.57
46714;BME280;32445;51.376;10.874;2022-11-13T01:34:29;100712.31;;;4.87;51.93
46714;BME280;32445;51.376;10.874;2022-11-13T01:37:30;100723.41;;;4.84;51.46
46714;BME280;32445;51.376;10.874;2022-11-13T01:40:30;100730.28;;;4.83;51.39
46714;BME280;32445;51.376;10.874;2022-11-13T01:43:33;100721.63;;;4.80;51.42
46714;BME280;32445;51.376;10.874;2022-11-13T01:46:37;100720.75;;;4.78;51.91
46714;BME280;32445;51.376;10.874;2022-11-13T01:49:40;100717.28;;;4.76;51.87
46714;BME280;32445;51.376;10.874;2022-11-13T01:52:41;100717.22;;;4.74;51.48
46714;BME280;32445;51.376;10.874;2022-11-13T01:55:42;100712.94;;;4.72;51.33
46714;BME280;32445;51.376;10.874;2022-11-13T01:58:52;100714.59;;;4.70;51.93
46714;BME280;32445;51.376;10.874;2022-11-13T02:01:54;100710.31;;;4.68;51.62
46714;BME280;32445;51.376;10.874;2022-11-13T02:04:55;100702.53;;;4.67;52.02
46714;BME280;32445;51.376;10.874;2022-11-13T02:07:56;100701.69;;;4.66;51.50
46714;BME280;32445;51.376;10.874;2022-11-13T02:10:56;100693.06;;;4.63;51.85
46714;BME280;32445;51.376;10.874;2022-11-13T02:13:57;100701.59;;;4.62;52.01
46714;BME280;32445;51.376;10.874;2022-11-13T02:17:02;100705.84;;;4.60;52.34
46714;BME280;32445;51.376;10.874;2022-11-13T02:20:04;100693.84;;;4.59;52.16
46714;BME280;32445;51.376;10.874;2022-11-13T02:26:19;100680.06;;;4.57;51.95
46714;BME280;32445;51.376;10.874;2022-11-13T02:29:22;100678.38;;;4.56;52.23
46714;BME280;32445;51.376;10.874;2022-11-13T02:32:23;100679.19;;;4.55;52.46
46714;BME280;32445;51.376;10.874;2022-11-13T02:35:26;100665.44;;;4.53;52.12
46714;BME280;32445;51.376;10.874;2022-11-13T02:38:28;100658.59;;;4.52;52.43
46714;BME280;32445;51.376;10.874;2022-11-13T02:41:28;100671.41;;;4.50;52.18
46714;BME280;32445;51.376;10.874;2022-11-13T02:44:29;100669.66;;;4.49;52.18
46714;BME280;32445;51.376;10.874;2022-11-13T02:47:29;100675.66;;;4.49;52.00
46714;BME280;32445;51.376;10.874;2022-11-13T02:50:30;100669.66;;;4.47;51.85
46714;BME280;32445;51.376;10.874;2022-11-13T02:53:31;100671.38;;;4.48;52.05
46714;BME280;32445;51.376;10.874;2022-11-13T02:56:32;100673.06;;;4.46;52.55
46714;BME280;32445;51.376;10.874;2022-11-13T02:59:32;100667.03;;;4.44;52.62
46714;BME280;32445;51.376;10.874;2022-11-13T03:02:32;100657.56;;;4.43;52.31
46714;BME280;32445;51.376;10.874;2022-11-13T03:05:33;100659.22;;;4.41;52.79
46714;BME280;32445;51.376;10.874;2022-11-13T03:08:33;100660.09;;;4.40;52.14
46714;BME280;32445;51.376;10.874;2022-11-13T03:11:33;100655.75;;;4.38;52.41
46714;BME280;32445;51.376;10.874;2022-11-13T03:14:34;100661.72;;;4.37;52.53
46714;BME280;32445;51.376;10.874;2022-11-13T03:17:35;100657.41;;;4.34;52.78
46714;BME280;32445;51.376;10.874;2022-11-13T03:20:36;100658.25;;;4.33;52.31
46714;BME280;32445;51.376;10.874;2022-11-13T03:23:39;100651.38;;;4.32;52.35
46714;BME280;32445;51.376;10.874;2022-11-13T03:26:40;100653.91;;;4.30;52.59
46714;BME280;32445;51.376;10.874;2022-11-13T03:29:40;100655.63;;;4.28;52.61
46714;BME280;32445;51.376;10.874;2022-11-13T03:32:40;100647.00;;;4.26;52.80
46714;BME280;32445;51.376;10.874;2022-11-13T03:35:41;100655.53;;;4.25;52.80
46714;BME280;32445;51.376;10.874;2022-11-13T03:38:42;100649.50;;;4.23;52.57
46714;BME280;32445;51.376;10.874;2022-11-13T03:41:42;100655.44;;;4.21;52.67
46714;BME280;32445;51.376;10.874;2022-11-13T03:44:42;100652.91;;;4.22;52.82
46714;BME280;32445;51.376;10.874;2022-11-13T03:47:42;100641.75;;;4.20;52.93
46714;BME280;32445;51.376;10.874;2022-11-13T03:50:45;100643.41;;;4.18;52.31
46714;BME280;32445;51.376;10.874;2022-11-13T03:53:46;100634.84;;;4.18;52.78
46714;BME280;32445;51.376;10.874;2022-11-13T03:56:46;100636.53;;;4.15;52.70
46714;BME280;32445;51.376;10.874;2022-11-13T03:59:46;100630.50;;;4.15;52.88
46714;BME280;32445;51.376;10.874;2022-11-13T04:02:47;100627.06;;;4.13;52.54
46714;BME280;32445;51.376;10.874;2022-11-13T04:05:48;100633.03;;;4.12;53.22
46714;BME280;32445;51.376;10.874;2022-11-13T04:08:49;100620.13;;;4.09;52.68
46714;BME280;32445;51.376;10.874;2022-11-13T04:11:50;100620.94;;;4.08;52.45
46714;BME280;32445;51.376;10.874;2022-11-13T04:14:50;100613.16;;;4.03;52.69
46714;BME280;32445;51.376;10.874;2022-11-13T04:17:50;100614.81;;;4.01;52.49
46714;BME280;32445;51.376;10.874;2022-11-13T04:20:51;100603.66;;;3.97;52.74
46714;BME280;32445;51.376;10.874;2022-11-13T04:23:51;100609.59;;;3.95;52.57
46714;BME280;32445;51.376;10.874;2022-11-13T04:26:51;100609.53;;;3.92;52.22
46714;BME280;32445;51.376;10.874;2022-11-13T04:29:52;100597.47;;;3.88;52.45
46714;BME280;32445;51.376;10.874;2022-11-13T04:32:52;100596.56;;;3.84;51.94
46714;BME280;32445;51.376;10.874;2022-11-13T04:35:53;100593.91;;;3.81;52.60
46714;BME280;32445;51.376;10.874;2022-11-13T04:38:53;100599.84;;;3.77;52.22
46714;BME280;32445;51.376;10.874;2022-11-13T04:41:53;100598.94;;;3.75;52.17
46714;BME280;32445;51.376;10.874;2022-11-13T04:45:12;100600.59;;;3.71;52.80
46714;BME280;32445;51.376;10.874;2022-11-13T04:48:12;100588.53;;;3.67;51.98
46714;BME280;32445;51.376;10.874;2022-11-13T04:51:13;100587.63;;;3.65;52.07
46714;BME280;32445;51.376;10.874;2022-11-13T04:54:13;100579.00;;;3.61;52.38
46714;BME280;32445;51.376;10.874;2022-11-13T04:57:13;100585.75;;;3.58;52.46
46714;BME280;32445;51.376;10.874;2022-11-13T05:00:14;100587.44;;;3.56;52.31
46714;BME280;32445;51.376;10.874;2022-11-13T05:03:14;100582.25;;;3.53;52.13
46714;BME280;32445;51.376;10.874;2022-11-13T05:06:15;100579.63;;;3.50;51.90
46714;BME280;32445;51.376;10.874;2022-11-13T05:09:15;100571.03;;;3.47;52.74
46714;BME280;32445;51.376;10.874;2022-11-13T05:12:15;100578.66;;;3.44;52.13
46714;BME280;32445;51.376;10.874;2022-11-13T05:15:16;100576.91;;;3.42;52.13
46714;BME280;32445;51.376;10.874;2022-11-13T05:18:16;100576.00;;;3.40;52.37
46714;BME280;32445;51.376;10.874;2022-11-13T05:21:17;100581.13;;;3.38;52.31
46714;BME280;32445;51.376;10.874;2022-11-13T05:24:17;100577.59;;;3.35;52.09
46714;BME280;32445;51.376;10.874;2022-11-13T05:27:18;100575.88;;;3.34;52.60
46714;BME280;32445;51.376;10.874;2022-11-13T05:30:18;100584.38;;;3.31;52.53
46714;BME280;32445;51.376;10.874;2022-11-13T05:33:19;100576.66;;;3.29;52.13
46714;BME280;32445;51.376;10.874;2022-11-13T05:36:20;100586.00;;;3.27;52.39
46714;BME280;32445;51.376;10.874;2022-11-13T05:39:20;100578.25;;;3.24;52.56
46714;BME280;32445;51.376;10.874;2022-11-13T05:42:20;100573.94;;;3.23;52.60
46714;BME280;32445;51.376;10.874;2022-11-13T05:45:21;100567.00;;;3.19;52.60
46714;BME280;32445;51.376;10.874;2022-11-13T05:48:22;100565.28;;;3.17;52.53
46714;BME280;32445;51.376;10.874;2022-11-13T05:51:26;100565.19;;;3.14;52.20
46714;BME280;32445;51.376;10.874;2022-11-13T05:54:27;100567.72;;;3.12;52.42
46714;BME280;32445;51.376;10.874;2022-11-13T05:57:27;100560.81;;;3.09;52.10
46714;BME280;32445;51.376;10.874;2022-11-13T06:00:27;100552.25;;;3.07;52.38
46714;BME280;32445;51.376;10.874;2022-11-13T06:03:28;100550.50;;;3.06;52.29
46714;BME280;32445;51.376;10.874;2022-11-13T06:06:29;100547.00;;;3.03;52.75
46714;BME280;32445;51.376;10.874;2022-11-13T06:09:30;100542.72;;;3.02;52.71
46714;BME280;32445;51.376;10.874;2022-11-13T06:12:30;100540.94;;;2.99;52.41
46714;BME280;32445;51.376;10.874;2022-11-13T06:15:31;100534.94;;;2.97;52.12
46714;BME280;32445;51.376;10.874;2022-11-13T06:18:32;100533.19;;;2.96;52.95
46714;BME280;32445;51.376;10.874;2022-11-13T06:21:34;100522.03;;;2.94;52.73
46714;BME280;32445;51.376;10.874;2022-11-13T06:24:35;100523.72;;;2.93;52.07
46714;BME280;32445;51.376;10.874;2022-11-13T06:27:35;100523.75;;;2.95;52.89
46714;BME280;32445;51.376;10.874;2022-11-13T06:30:36;100525.50;;;2.96;52.86
46714;BME280;32445;51.376;10.874;2022-11-13T06:33:38;100522.06;;;2.96;52.99
46714;BME280;32445;51.376;10.874;2022-11-13T06:36:38;100518.72;;;2.98;52.43
46714;BME280;32445;51.376;10.874;2022-11-13T06:39:39;100526.44;;;3.00;52.66
46714;BME280;32445;51.376;10.874;2022-11-13T06:42:39;100521.34;;;3.01;52.66
46714;BME280;32445;51.376;10.874;2022-11-13T06:45:39;100523.97;;;3.04;52.99
46714;BME280;32445;51.376;10.874;2022-11-13T06:48:40;100523.13;;;3.05;52.76
46714;BME280;32445;51.376;10.874;2022-11-13T06:51:40;100531.72;;;3.07;53.01
46714;BME280;32445;51.376;10.874;2022-11-13T06:54:41;100527.53;;;3.11;53.16
46714;BME280;32445;51.376;10.874;2022-11-13T06:57:41;100529.25;;;3.12;52.96
46714;BME280;32445;51.376;10.874;2022-11-13T07:00:42;100528.44;;;3.15;53.49
46714;BME280;32445;51.376;10.874;2022-11-13T07:03:42;100531.84;;;3.15;53.45
46714;BME280;32445;51.376;10.874;2022-11-13T07:06:43;100520.75;;;3.15;53.51
46714;BME280;32445;51.376;10.874;2022-11-13T07:09:43;100523.31;;;3.15;53.57
46714;BME280;32445;51.376;10.874;2022-11-13T07:12:43;100525.00;;;3.13;53.72
46714;BME280;32445;51.376;10.874;2022-11-13T07:15:44;100519.94;;;3.17;53.45
46714;BME280;32445;51.376;10.874;2022-11-13T07:18:51;100528.56;;;3.21;53.87
46714;BME280;32445;51.376;10.874;2022-11-13T07:21:52;100523.56;;;3.27;53.88
46714;BME280;32445;51.376;10.874;2022-11-13T07:24:52;100519.34;;;3.31;53.09
46714;BME280;32445;51.376;10.874;2022-11-13T07:27:53;100533.91;;;3.32;53.38
46714;BME280;32445;51.376;10.874;2022-11-13T07:30:56;100531.41;;;3.35;53.45
46714;BME280;32445;51.376;10.874;2022-11-13T07:33:57;100538.31;;;3.37;53.83
46714;BME280;32445;51.376;10.874;2022-11-13T07:36:58;100537.41;;;3.35;54.01
46714;BME280;32445;51.376;10.874;2022-11-13T07:39:58;100541.72;;;3.38;53.97
46714;BME280;32445;51.376;10.874;2022-11-13T07:42:59;100541.81;;;3.42;54.03
46714;BME280;32445;51.376;10.874;2022-11-13T07:46:00;100539.34;;;3.45;53.71
46714;BME280;32445;51.376;10.874;2022-11-13T07:49:01;100535.06;;;3.46;53.69
46714;BME280;32445;51.376;10.874;2022-11-13T07:52:01;100536.69;;;3.42;53.95
46714;BME280;32445;51.376;10.874;2022-11-13T07:55:01;100536.75;;;3.45;54.19
46714;BME280;32445;51.376;10.874;2022-11-13T07:58:03;100534.28;;;3.50;54.34
46714;BME280;32445;51.376;10.874;2022-11-13T08:01:05;100533.53;;;3.56;53.80
46714;BME280;32445;51.376;10.874;2022-11-13T08:04:05;100531.00;;;3.57;54.05
46714;BME280;32445;51.376;10.874;2022-11-13T08:07:06;100526.75;;;3.59;54.21
46714;BME280;32445;51.376;10.874;2022-11-13T08:10:08;100526.75;;;3.61;54.09
46714;BME280;32445;51.376;10.874;2022-11-13T08:13:09;100527.69;;;3.64;54.54
46714;BME280;32445;51.376;10.874;2022-11-13T08:16:10;100520.88;;;3.67;54.38
46714;BME280;32445;51.376;10.874;2022-11-13T08:19:10;100528.59;;;3.68;54.74
46714;BME280;32445;51.376;10.874;2022-11-13T08:22:11;100533.81;;;3.71;54.70
46714;BME280;32445;51.376;10.874;2022-11-13T08:25:11;100514.13;;;3.70;54.74
46714;BME280;32445;51.376;10.874;2022-11-13T08:28:11;100532.00;;;3.66;55.63
46714;BME280;32445;51.376;10.874;2022-11-13T08:31:14;100520.97;;;3.70;55.68
46714;BME280;32445;51.376;10.874;2022-11-13T08:34:14;100515.91;;;3.74;55.57
46714;BME280;32445;51.376;10.874;2022-11-13T08:37:15;100509.22;;;3.83;55.13
46714;BME280;32445;51.376;10.874;2022-11-13T08:40:15;100500.63;;;3.84;55.53
46714;BME280;32445;51.376;10.874;2022-11-13T08:43:16;100503.34;;;3.90;55.47
46714;BME280;32445;51.376;10.874;2022-11-13T08:46:17;100505.84;;;3.88;56.02
46714;BME280;32445;51.376;10.874;2022-11-13T08:49:18;100492.13;;;3.86;56.03
46714;BME280;32445;51.376;10.874;2022-11-13T08:52:18;100492.19;;;3.89;56.08
46714;BME280;32445;51.376;10.874;2022-11-13T08:55:18;100481.16;;;3.96;55.81
46714;BME280;32445;51.376;10.874;2022-11-13T08:58:19;100483.00;;;4.05;55.67
46714;BME280;32445;51.376;10.874;2022-11-13T09:01:19;100475.44;;;4.11;55.58
46714;BME280;32445;51.376;10.874;2022-11-13T09:04:23;100478.09;;;4.19;56.50
46714;BME280;32445;51.376;10.874;2022-11-13T09:07:24;100479.06;;;4.24;56.17
46714;BME280;32445;51.376;10.874;2022-11-13T09:10:25;100467.16;;;4.32;55.87
46714;BME280;32445;51.376;10.874;2022-11-13T09:13:26;100470.72;;;4.41;56.17
46714;BME280;32445;51.376;10.874;2022-11-13T09:16:26;100466.53;;;4.47;55.78
46714;BME280;32445;51.376;10.874;2022-11-13T09:19:27;100463.19;;;4.55;56.10
46714;BME280;32445;51.376;10.874;2022-11-13T09:22:27;100459.81;;;4.57;56.00
46714;BME280;32445;51.376;10.874;2022-11-13T09:25:29;100466.72;;;4.61;56.39
46714;BME280;32445;51.376;10.874;2022-11-13T09:28:30;100460.69;;;4.61;56.83
46714;BME280;32445;51.376;10.874;2022-11-13T09:31:30;100463.31;;;4.64;57.37
46714;BME280;32445;51.376;10.874;2022-11-13T09:34:30;100456.50;;;4.66;57.34
46714;BME280;32445;51.376;10.874;2022-11-13T09:37:32;100451.44;;;4.72;57.52
46714;BME280;32445;51.376;10.874;2022-11-13T09:40:40;100444.63;;;4.76;56.37
46714;BME280;32445;51.376;10.874;2022-11-13T09:43:45;100450.66;;;4.79;57.59
46714;BME280;32445;51.376;10.874;2022-11-13T09:47:06;100442.13;;;4.82;58.07
46714;BME280;32445;51.376;10.874;2022-11-13T09:50:21;100434.47;;;4.88;58.54
46714;BME280;32445;51.376;10.874;2022-11-13T09:53:22;100432.03;;;4.99;58.30
46714;BME280;32445;51.376;10.874;2022-11-13T09:56:34;100428.72;;;5.09;58.91
46714;BME280;32445;51.376;10.874;2022-11-13T09:59:49;100419.44;;;5.24;59.59
46714;BME280;32445;51.376;10.874;2022-11-13T10:12:14;100412.41;;;6.02;60.66
46714;BME280;32445;51.376;10.874;2022-11-13T10:15:15;100396.22;;;6.22;60.90
46714;BME280;32445;51.376;10.874;2022-11-13T10:18:20;100390.28;;;6.41;60.99
46714;BME280;32445;51.376;10.874;2022-11-13T10:21:31;100400.72;;;6.62;60.75
46714;BME280;32445;51.376;10.874;2022-11-13T10:24:39;100402.53;;;6.83;60.37
46714;BME280;32445;51.376;10.874;2022-11-13T10:27:41;100397.41;;;7.04;60.15
46714;BME280;32445;51.376;10.874;2022-11-13T10:30:43;100400.06;;;7.29;60.79
46714;BME280;32445;51.376;10.874;2022-11-13T10:33:44;100396.63;;;7.52;61.06
46714;BME280;32445;51.376;10.874;2022-11-13T10:37:23;100389.78;;;7.74;59.52
46714;BME280;32445;51.376;10.874;2022-11-13T10:40:28;100389.72;;;8.02;59.33
46714;BME280;32445;51.376;10.874;2022-11-13T10:43:29;100387.09;;;8.23;59.65
46714;BME280;32445;51.376;10.874;2022-11-13T10:46:30;100383.63;;;8.44;61.07
46714;BME280;32445;51.376;10.874;2022-11-13T10:49:31;100382.69;;;8.62;60.29
46714;BME280;32445;51.376;10.874;2022-11-13T10:52:31;100369.66;;;8.82;60.52
46714;BME280;32445;51.376;10.874;2022-11-13T10:58:33;100351.28;;;9.27;60.46
46714;BME280;32445;51.376;10.874;2022-11-13T11:01:33;100346.78;;;9.49;59.78
46714;BME280;32445;51.376;10.874;2022-11-13T11:04:34;100342.28;;;9.72;60.29
46714;BME280;32445;51.376;10.874;2022-11-13T11:07:39;100344.69;;;9.92;60.39
46714;BME280;32445;51.376;10.874;2022-11-13T11:10:40;100341.88;;;10.12;59.88
46714;BME280;32445;51.376;10.874;2022-11-13T11:14:15;100340.78;;;10.30;59.56
46714;BME280;32445;51.376;10.874;2022-11-13T11:17:18;100339.84;;;10.42;58.98
46714;BME280;32445;51.376;10.874;2022-11-13T11:27:20;100319.38;;;10.84;56.48
46714;BME280;32445;51.376;10.874;2022-11-13T11:30:24;100317.31;;;11.06;56.99
46714;BME280;32445;51.376;10.874;2022-11-13T11:33:35;100321.34;;;11.25;56.54
46714;BME280;32445;51.376;10.874;2022-11-13T11:36:47;100314.13;;;11.43;55.98
46714;BME280;32445;51.376;10.874;2022-11-13T11:39:58;100316.41;;;11.62;55.39
46714;BME280;32445;51.376;10.874;2022-11-13T11:46:30;100327.94;;;11.98;55.11
46714;BME280;32445;51.376;10.874;2022-11-13T11:49:31;100318.13;;;12.13;54.58
46714;BME280;32445;51.376;10.874;2022-11-13T11:52:35;100318.69;;;12.28;54.06
46714;BME280;32445;51.376;10.874;2022-11-13T12:11:48;100310.16;;;13.02;51.70
46714;BME280;32445;51.376;10.874;2022-11-13T12:15:09;100307.34;;;13.09;50.46
46714;BME280;32445;51.376;10.874;2022-11-13T12:18:16;100287.91;;;13.24;50.91
46714;BME280;32445;51.376;10.874;2022-11-13T12:21:21;100285.00;;;13.38;51.24
46714;BME280;32445;51.376;10.874;2022-11-13T12:24:46;100282.09;;;13.49;50.50
46714;BME280;32445;51.376;10.874;2022-11-13T12:28:10;100270.44;;;13.62;50.48
46714;BME280;32445;51.376;10.874;2022-11-13T12:34:59;100260.28;;;13.84;49.75
46714;BME280;32445;51.376;10.874;2022-11-13T12:41:46;100243.97;;;14.08;49.45
46714;BME280;32445;51.376;10.874;2022-11-13T12:48:19;100220.63;;;14.33;49.47
46714;BME280;32445;51.376;10.874;2022-11-13T12:51:20;100226.34;;;14.46;49.37
46714;BME280;32445;51.376;10.874;2022-11-13T12:54:31;100223.41;;;14.55;49.31
46714;BME280;32445;51.376;10.874;2022-11-13T12:57:32;100223.19;;;14.64;49.32
46714;BME280;32445;51.376;10.874;2022-11-13T13:00:33;100222.03;;;14.73;48.91
46714;BME280;32445;51.376;10.874;2022-11-13T13:03:37;100219.09;;;14.82;50.41
46714;BME280;32445;51.376;10.874;2022-11-13T13:06:52;100217.16;;;14.89;48.26
46714;BME280;32445;51.376;10.874;2022-11-13T13:16:28;100213.44;;;14.96;47.24
46714;BME280;32445;51.376;10.874;2022-11-13T13:19:31;100211.50;;;15.03;46.63
46714;BME280;32445;51.376;10.874;2022-11-13T13:22:34;100210.41;;;15.09;46.76
46714;BME280;32445;51.376;10.874;2022-11-13T13:25:35;100208.38;;;15.17;46.23
46714;BME280;32445;51.376;10.874;2022-11-13T13:28:38;100212.63;;;15.21;46.44
46714;BME280;32445;51.376;10.874;2022-11-13T13:35:06;100220.50;;;15.19;45.04
46714;BME280;32445;51.376;10.874;2022-11-13T13:38:27;100216.13;;;15.20;44.69
46714;BME280;32445;51.376;10.874;2022-11-13T13:47:48;100216.63;;;15.31;44.53
46714;BME280;32445;51.376;10.874;2022-11-13T13:50:49;100214.88;;;15.32;44.95
46714;BME280;32445;51.376;10.874;2022-11-13T13:53:51;100214.81;;;15.33;44.45
46714;BME280;32445;51.376;10.874;2022-11-13T13:56:53;100220.16;;;15.30;44.40
46714;BME280;32445;51.376;10.874;2022-11-13T13:59:55;100217.72;;;15.24;44.01
46714;BME280;32445;51.376;10.874;2022-11-13T14:02:56;100217.94;;;15.18;44.49
46714;BME280;32445;51.376;10.874;2022-11-13T14:06:16;100222.41;;;15.16;43.62
46714;BME280;32445;51.376;10.874;2022-11-13T14:09:20;100221.41;;;15.18;43.85
46714;BME280;32445;51.376;10.874;2022-11-13T14:12:21;100218.06;;;15.15;43.05
46714;BME280;32445;51.376;10.874;2022-11-13T14:15:23;100223.41;;;15.12;43.46
46714;BME280;32445;51.376;10.874;2022-11-13T14:18:24;100217.41;;;15.08;44.58
46714;BME280;32445;51.376;10.874;2022-11-13T14:21:26;100214.94;;;15.03;43.97
46714;BME280;32445;51.376;10.874;2022-11-13T14:24:43;100220.56;;;14.91;42.58
46714;BME280;32445;51.376;10.874;2022-11-13T14:27:45;100213.84;;;14.84;42.53
46714;BME280;32445;51.376;10.874;2022-11-13T14:30:59;100209.88;;;14.72;42.04
46714;BME280;32445;51.376;10.874;2022-11-13T14:34:13;100208.53;;;14.59;42.18
46714;BME280;32445;51.376;10.874;2022-11-13T14:37:22;100200.16;;;14.47;42.32
46714;BME280;32445;51.376;10.874;2022-11-13T14:40:29;100190.91;;;14.37;42.45
46714;BME280;32445;51.376;10.874;2022-11-13T14:43:32;100189.44;;;14.27;42.32
46714;BME280;32445;51.376;10.874;2022-11-13T14:46:38;100175.88;;;14.15;42.29
46714;BME280;32445;51.376;10.874;2022-11-13T14:49:43;100169.22;;;14.05;42.54
46714;BME280;32445;51.376;10.874;2022-11-13T14:52:54;100169.66;;;13.91;42.54
46714;BME280;32445;51.376;10.874;2022-11-13T14:56:00;100174.22;;;13.83;42.33
46714;BME280;32445;51.376;10.874;2022-11-13T15:02:11;100168.69;;;13.62;42.83
46714;BME280;32445;51.376;10.874;2022-11-13T15:05:11;100165.53;;;13.53;42.61
46714;BME280;32445;51.376;10.874;2022-11-13T15:08:12;100160.59;;;13.42;42.99
46714;BME280;32445;51.376;10.874;2022-11-13T15:11:14;100154.72;;;13.32;43.22
46714;BME280;32445;51.376;10.874;2022-11-13T15:14:17;100159.31;;;13.22;43.07
46714;BME280;32445;51.376;10.874;2022-11-13T15:17:19;100154.47;;;13.10;43.03
46714;BME280;32445;51.376;10.874;2022-11-13T15:20:24;100146.84;;;13.01;43.08
46714;BME280;32445;51.376;10.874;2022-11-13T15:23:25;100146.22;;;12.92;43.50
46714;BME280;32445;51.376;10.874;2022-11-13T15:26:25;100136.94;;;12.80;43.34
46714;BME280;32445;51.376;10.874;2022-11-13T15:29:26;100130.22;;;12.72;43.11
46714;BME280;32445;51.376;10.874;2022-11-13T15:32:26;100125.22;;;12.64;43.27
46714;BME280;32445;51.376;10.874;2022-11-13T15:38:30;100131.72;;;12.46;43.52
46714;BME280;32445;51.376;10.874;2022-11-13T15:41:31;100144.13;;;12.35;44.05
46714;BME280;32445;51.376;10.874;2022-11-13T15:44:33;100139.06;;;12.28;44.00
46714;BME280;32445;51.376;10.874;2022-11-13T15:47:35;100140.94;;;12.22;43.95
46714;BME280;32445;51.376;10.874;2022-11-13T15:50:35;100135.19;;;12.07;44.37
46714;BME280;32445;51.376;10.874;2022-11-13T15:53:36;100138.13;;;11.90;44.52
46714;BME280;32445;51.376;10.874;2022-11-13T15:56:36;100144.38;;;11.82;44.51
46714;BME280;32445;51.376;10.874;2022-11-13T15:59:37;100135.88;;;11.75;44.30
46714;BME280;32445;51.376;10.874;2022-11-13T16:02:37;100135.16;;;11.67;45.26
46714;BME280;32445;51.376;10.874;2022-11-13T16:05:39;100130.97;;;11.59;44.69
46714;BME280;32445;51.376;10.874;2022-11-13T16:08:39;100138.03;;;11.53;44.79
46714;BME280;32445;51.376;10.874;2022-11-13T16:11:41;100142.56;;;11.43;44.90
46714;BME280;32445;51.376;10.874;2022-11-13T16:14:42;100144.44;;;11.36;44.99
46714;BME280;32445;51.376;10.874;2022-11-13T16:17:45;100149.75;;;11.29;45.07
46714;BME280;32445;51.376;10.874;2022-11-13T16:20:46;100142.97;;;11.21;45.34
46714;BME280;32445;51.376;10.874;2022-11-13T16:23:46;100140.50;;;11.15;45.43
46714;BME280;32445;51.376;10.874;2022-11-13T16:26:50;100141.50;;;11.08;45.79
46714;BME280;32445;51.376;10.874;2022-11-13T16:29:54;100145.09;;;11.01;46.19
46714;BME280;32445;51.376;10.874;2022-11-13T16:32:54;100150.41;;;10.95;45.98
46714;BME280;32445;51.376;10.874;2022-11-13T16:35:55;100153.94;;;10.90;46.13
46714;BME280;32445;51.376;10.874;2022-11-13T16:38:55;100151.41;;;10.84;46.03
46714;BME280;32445;51.376;10.874;2022-11-13T16:41:56;100148.06;;;10.79;46.61
46714;BME280;32445;51.376;10.874;2022-11-13T16:44:56;100144.63;;;10.76;46.80
46714;BME280;32445;51.376;10.874;2022-11-13T16:47:57;100158.63;;;10.67;47.05
46714;BME280;32445;51.376;10.874;2022-11-13T16:50:57;100157.88;;;10.59;47.59
46714;BME280;32445;51.376;10.874;2022-11-13T16:53:58;100158.81;;;10.56;47.84
46714;BME280;32445;51.376;10.874;2022-11-13T16:56:58;100155.38;;;10.54;47.47
46714;BME280;32445;51.376;10.874;2022-11-13T16:59:58;100147.69;;;10.48;47.70
46714;BME280;32445;51.376;10.874;2022-11-13T17:02:59;100146.00;;;10.44;47.82
46714;BME280;32445;51.376;10.874;2022-11-13T17:05:59;100147.78;;;10.40;47.76